Time;durP1;ratioP1;P1;durP2;ratioP2;P2;SDS_P1;SDS_P2;PMS_P1;PMS_P2;Temp;Humidity;BMP_temperature;BMP_pressure;BME280_temperature;BME280_humidity;BME280_pressure;Samples;Min_cycle;Max_cycle;Signal;HPM_P1;HPM_P2
2023/08/08 00:00:01;;;;;;;2.70;1.20;;;;;;;11.99;100.00;96616.25;5030928;27;105480;-73
2023/08/08 00:02:31;;;;;;;1.40;1.30;;;;;;;11.94;100.00;96613.53;5050215;27;101770;-73
2023/08/08 00:04:58;;;;;;;1.10;1.10;;;;;;;11.87;100.00;96618.25;5051959;27;102826;-73
2023/08/08 00:07:25;;;;;;;1.33;1.23;;;;;;;11.91;100.00;96614.03;5056208;27;102775;-73
2023/08/08 00:09:52;;;;;;;1.23;1.13;;;;;;;11.80;100.00;96615.81;5035208;27;105266;-73
2023/08/08 00:12:21;;;;;;;1.50;1.40;;;;;;;11.78;100.00;96614.47;5034618;27;105636;-73
2023/08/08 00:14:47;;;;;;;1.87;1.43;;;;;;;11.75;100.00;96610.44;5035159;27;102249;-73
2023/08/08 00:17:14;;;;;;;1.50;1.40;;;;;;;11.74;100.00;96618.66;5053499;27;102731;-73
2023/08/08 00:19:41;;;;;;;1.10;1.10;;;;;;;11.69;100.00;96610.63;5034278;27;104323;-73
2023/08/08 00:22:09;;;;;;;1.20;1.17;;;;;;;11.71;100.00;96616.50;5034798;27;101933;-73
2023/08/08 00:24:36;;;;;;;1.00;1.00;;;;;;;11.76;100.00;96611.22;5034902;27;105314;-73
2023/08/08 00:27:05;;;;;;;2.40;1.43;;;;;;;11.75;100.00;96613.09;5033962;27;104477;-73
2023/08/08 00:29:33;;;;;;;1.40;1.30;;;;;;;11.72;100.00;96612.81;5038285;27;102014;-73
2023/08/08 00:32:00;;;;;;;1.10;1.10;;;;;;;11.71;100.00;96611.97;5034097;27;105533;-73
2023/08/08 00:34:27;;;;;;;1.00;1.00;;;;;;;11.72;100.00;96616.25;5035028;27;102196;-73
2023/08/08 00:36:54;;;;;;;1.00;1.00;;;;;;;11.71;100.00;96611.97;5034717;27;105393;-73
2023/08/08 00:39:20;;;;;;;3.00;1.50;;;;;;;11.76;100.00;96600.56;5034101;27;105486;-73
2023/08/08 00:41:47;;;;;;;3.40;1.30;;;;;;;11.73;100.00;96603.75;5034747;27;102025;-73
2023/08/08 00:44:15;;;;;;;1.10;1.10;;;;;;;11.66;100.00;96603.16;5034828;27;105000;-73
2023/08/08 00:46:45;;;;;;;1.40;1.30;;;;;;;11.71;100.00;96596.00;5033802;27;104338;-73
2023/08/08 00:49:12;;;;;;;1.10;1.10;;;;;;;11.72;100.00;96589.63;5034874;27;102072;-73
2023/08/08 00:51:40;;;;;;;1.13;1.13;;;;;;;11.71;100.00;96592.53;5037181;27;105005;-73
2023/08/08 00:54:07;;;;;;;2.07;1.87;;;;;;;11.70;100.00;96585.59;5034464;27;102185;-73
2023/08/08 00:56:36;;;;;;;1.20;1.10;;;;;;;11.70;100.00;96586.41;5034401;27;105445;-73
2023/08/08 00:59:04;;;;;;;1.33;1.17;;;;;;;11.70;100.00;96590.91;5033715;27;105335;-73
2023/08/08 01:01:30;;;;;;;1.20;1.20;;;;;;;11.71;100.00;96584.53;5034344;27;102396;-73
2023/08/08 01:04:00;;;;;;;1.50;1.40;;;;;;;11.66;100.00;96590.63;5034110;27;105335;-73
2023/08/08 01:06:29;;;;;;;1.37;1.20;;;;;;;11.66;100.00;96587.97;5033493;27;105472;-73
2023/08/08 01:09:00;;;;;;;1.20;1.20;;;;;;;11.64;100.00;96581.28;5034221;27;102192;-73
2023/08/08 01:11:31;;;;;;;1.77;1.20;;;;;;;11.59;100.00;96578.56;5034041;27;105583;-73
2023/08/08 01:14:00;;;;;;;1.40;1.30;;;;;;;11.58;100.00;96577.75;5036978;27;105670;-73
2023/08/08 01:16:28;;;;;;;1.73;1.10;;;;;;;11.55;100.00;96567.56;5033265;27;105323;-73
2023/08/08 01:18:59;;;;;;;1.77;1.13;;;;;;;11.45;100.00;96572.00;5033246;27;105104;-73
2023/08/08 01:21:30;;;;;;;1.27;1.23;;;;;;;11.39;100.00;96578.34;5034127;27;102210;-73
2023/08/08 01:24:20;;;;;;;1.33;1.23;;;;;;;11.44;100.00;96565.09;5034152;27;105972;-73
2023/08/08 01:26:48;;;;;;;1.50;1.40;;;;;;;11.50;100.00;96569.41;5033425;27;105491;-73
2023/08/08 01:29:15;;;;;;;1.20;1.10;;;;;;;11.51;100.00;96563.81;5033953;27;102051;-73
2023/08/08 01:31:42;;;;;;;3.30;1.47;;;;;;;11.49;100.00;96557.94;5034009;27;102553;-73
2023/08/08 01:34:09;;;;;;;1.10;1.10;;;;;;;11.49;100.00;96557.13;5033179;27;105669;-73
2023/08/08 01:36:43;;;;;;;1.30;1.20;;;;;;;11.46;100.00;96555.75;5037400;27;102138;-73
2023/08/08 01:39:17;;;;;;;1.40;1.30;;;;;;;11.48;100.00;96560.84;5033208;27;105490;-73
2023/08/08 01:41:49;;;;;;;1.30;1.27;;;;;;;11.44;100.00;96546.44;5033840;27;101764;-73
2023/08/08 01:44:17;;;;;;;2.73;1.23;;;;;;;11.39;100.00;96546.38;5033625;27;104780;-73
2023/08/08 01:46:46;;;;;;;1.27;1.17;;;;;;;11.35;100.00;96558.59;5051114;27;102831;-73
2023/08/08 01:49:14;;;;;;;1.33;1.23;;;;;;;11.35;100.00;96555.94;5033502;27;101891;-73
2023/08/08 01:51:41;;;;;;;1.00;1.00;;;;;;;11.32;100.00;96545.75;5033468;27;105544;-73
2023/08/08 01:54:09;;;;;;;1.00;1.00;;;;;;;11.25;100.00;96561.13;5032840;27;104350;-73
2023/08/08 01:56:36;;;;;;;1.37;1.30;;;;;;;11.23;100.00;96557.94;5036940;27;102340;-73
2023/08/08 01:59:05;;;;;;;1.27;1.20;;;;;;;11.26;100.00;96550.25;5032104;27;105515;-73
2023/08/08 02:01:31;;;;;;;1.70;1.60;;;;;;;11.26;100.00;96550.25;5033477;27;101903;-73
2023/08/08 02:03:58;;;;;;;2.50;1.60;;;;;;;11.34;100.00;96543.66;5033219;27;105412;-73
2023/08/08 02:06:27;;;;;;;1.50;1.40;;;;;;;11.36;100.00;96544.22;5032658;27;105057;-73
2023/08/08 02:08:54;;;;;;;2.87;1.70;;;;;;;11.36;100.00;96530.91;5033350;27;102018;-73
2023/08/08 02:11:23;;;;;;;1.50;1.40;;;;;;;11.35;100.00;96537.28;5033304;27;105209;-73
2023/08/08 02:13:50;;;;;;;1.50;1.40;;;;;;;11.30;100.00;96534.56;5032577;27;105604;-73
2023/08/08 02:16:19;;;;;;;1.67;1.57;;;;;;;11.35;100.00;96534.63;5033160;27;102066;-73
2023/08/08 02:18:46;;;;;;;1.60;1.50;;;;;;;11.48;100.00;96543.00;5035812;27;105158;-73
2023/08/08 02:21:12;;;;;;;1.70;1.60;;;;;;;11.44;100.00;96533.13;5033135;27;102004;-73
2023/08/08 02:23:39;;;;;;;1.60;1.50;;;;;;;11.30;100.00;96540.72;5033000;27;104154;-73
2023/08/08 02:26:06;;;;;;;1.33;1.33;;;;;;;11.38;100.00;96534.94;5032385;27;105258;-73
2023/08/08 02:28:33;;;;;;;1.90;1.60;;;;;;;11.49;100.00;96530.50;5032820;27;101964;-73
2023/08/08 02:31:00;;;;;;;1.80;1.67;;;;;;;11.51;100.00;96531.84;5032932;27;104842;-73
2023/08/08 02:33:29;;;;;;;1.93;1.70;;;;;;;11.47;100.00;96532.59;5032210;27;105867;-73
2023/08/08 02:35:56;;;;;;;1.63;1.53;;;;;;;11.52;100.00;96530.81;5032769;27;101864;-73
2023/08/08 02:38:23;;;;;;;2.13;1.30;;;;;;;11.53;100.00;96527.09;5032724;27;105234;-73
2023/08/08 02:40:50;;;;;;;1.77;1.53;;;;;;;11.50;100.00;96538.22;5035525;27;105607;-73
2023/08/08 02:43:19;;;;;;;1.47;1.37;;;;;;;11.53;100.00;96536.94;5032964;27;103818;-73
2023/08/08 02:45:47;;;;;;;1.63;1.50;;;;;;;11.49;100.00;96539.28;5032005;27;105050;-73
2023/08/08 02:48:14;;;;;;;2.33;1.83;;;;;;;11.45;100.00;96543.50;5032524;27;102045;-73
2023/08/08 02:50:42;;;;;;;1.70;1.60;;;;;;;11.41;100.00;96534.44;5032671;27;105201;-73
2023/08/08 02:53:09;;;;;;;1.47;1.37;;;;;;;11.40;100.00;96537.34;5031880;27;105395;-73
2023/08/08 02:55:41;;;;;;;1.43;1.33;;;;;;;11.33;100.00;96534.88;5032517;27;101848;-73
2023/08/08 02:58:08;;;;;;;2.10;1.50;;;;;;;11.32;100.00;96533.28;5031908;27;105059;-73
2023/08/08 03:00:36;;;;;;;1.60;1.50;;;;;;;11.32;100.00;96543.09;5031739;27;105489;-73
2023/08/08 03:03:03;;;;;;;2.20;2.00;;;;;;;11.22;100.00;96548.31;5036067;27;102237;-73
2023/08/08 03:05:31;;;;;;;1.90;1.80;;;;;;;11.26;100.00;96538.78;5050029;27;103041;-73
2023/08/08 03:08:01;;;;;;;1.60;1.50;;;;;;;11.30;100.00;96535.38;5032171;27;102015;-73
2023/08/08 03:10:29;;;;;;;1.83;1.70;;;;;;;11.31;100.00;96533.50;5032607;27;105182;-73
2023/08/08 03:12:56;;;;;;;1.67;1.57;;;;;;;11.31;100.00;96534.31;5031846;27;104108;-73
2023/08/08 03:15:23;;;;;;;1.83;1.63;;;;;;;11.35;100.00;96540.75;5032097;27;102257;-73
2023/08/08 03:17:50;;;;;;;1.50;1.40;;;;;;;11.31;100.00;96534.31;5032150;27;105326;-73
2023/08/08 03:20:17;;;;;;;1.47;1.37;;;;;;;11.31;100.00;96537.00;5031475;27;104976;-73
2023/08/08 03:22:45;;;;;;;1.83;1.60;;;;;;;11.36;100.00;96537.03;5032104;27;101845;-73
2023/08/08 03:25:14;;;;;;;1.50;1.40;;;;;;;11.38;100.00;96544.75;5034829;27;105393;-73
2023/08/08 03:27:41;;;;;;;1.60;1.50;;;;;;;11.37;100.00;96543.16;5031873;27;102265;-73
2023/08/08 03:30:11;;;;;;;1.43;1.40;;;;;;;11.35;100.00;96538.06;5031965;27;105454;-73
2023/08/08 03:32:42;;;;;;;2.27;2.07;;;;;;;11.31;100.00;96544.97;5031179;27;104226;-73
2023/08/08 03:35:09;;;;;;;1.67;1.50;;;;;;;11.34;100.00;96543.66;5032098;27;102259;-73
2023/08/08 03:37:37;;;;;;;1.87;1.77;;;;;;;11.37;100.00;96530.66;5031756;27;103800;-73
2023/08/08 03:40:07;;;;;;;2.30;1.60;;;;;;;11.33;100.00;96536.75;5030884;27;104014;-73
2023/08/08 03:42:35;;;;;;;2.30;1.73;;;;;;;11.23;100.00;96544.63;5031761;27;102169;-73
2023/08/08 03:45:03;;;;;;;2.07;1.60;;;;;;;11.25;100.00;96539.84;5031607;27;105132;-73
2023/08/08 03:47:30;;;;;;;1.93;1.60;;;;;;;11.23;100.00;96533.97;5034285;27;102403;-73
2023/08/08 03:49:57;;;;;;;1.87;1.60;;;;;;;11.33;100.00;96531.41;5031773;27;105563;-73
2023/08/08 03:52:24;;;;;;;1.67;1.57;;;;;;;11.35;100.00;96537.28;5031173;27;105552;-73
2023/08/08 03:54:52;;;;;;;2.37;1.20;;;;;;;11.34;100.00;96535.69;5031906;27;102013;-73
2023/08/08 03:57:19;;;;;;;1.60;1.50;;;;;;;11.33;100.00;96524.22;5031814;27;105239;-73
2023/08/08 03:59:48;;;;;;;1.60;1.50;;;;;;;11.27;100.00;96532.41;5030759;27;105622;-73
2023/08/08 04:02:15;;;;;;;1.70;1.60;;;;;;;11.17;100.00;96546.41;5031668;27;102109;-73
2023/08/08 04:04:42;;;;;;;2.43;1.80;;;;;;;11.29;100.00;96543.63;5031700;27;105732;-73
2023/08/08 04:07:09;;;;;;;1.73;1.63;;;;;;;11.39;100.00;96538.41;5034303;27;105409;-73
2023/08/08 04:09:36;;;;;;;1.97;1.87;;;;;;;11.27;100.00;96551.84;5031759;27;105620;-73
2023/08/08 04:12:04;;;;;;;1.50;1.40;;;;;;;11.26;100.00;96560.06;5031007;27;104088;-73
2023/08/08 04:14:30;;;;;;;1.60;1.50;;;;;;;11.30;100.00;96551.38;5031438;27;102023;-73
2023/08/08 04:16:59;;;;;;;1.87;1.50;;;;;;;11.29;100.00;96555.06;5031739;27;105390;-73
2023/08/08 04:19:26;;;;;;;2.77;1.43;;;;;;;11.31;100.00;96550.31;5030830;27;104410;-73
2023/08/08 04:21:53;;;;;;;1.50;1.40;;;;;;;11.36;100.00;96554.88;5031329;27;102078;-73
2023/08/08 04:24:20;;;;;;;3.27;1.43;;;;;;;11.38;100.00;96555.41;5031373;27;105521;-73
2023/08/08 04:26:47;;;;;;;1.20;1.20;;;;;;;11.46;100.00;96555.75;5030710;27;104632;-73
2023/08/08 04:29:14;;;;;;;1.43;1.30;;;;;;;11.45;100.00;96561.34;5034382;27;101967;-73
2023/08/08 04:31:41;;;;;;;1.37;1.27;;;;;;;11.57;100.00;96559.34;5030533;27;105019;-73
2023/08/08 04:34:09;;;;;;;1.40;1.30;;;;;;;11.60;100.00;96553.53;5031346;27;102486;-73
2023/08/08 04:36:36;;;;;;;1.50;1.40;;;;;;;11.64;100.00;96566.09;5031146;27;105425;-73
2023/08/08 04:39:03;;;;;;;1.40;1.30;;;;;;;11.72;100.00;96554.19;5030643;27;104606;-73
2023/08/08 04:41:30;;;;;;;1.57;1.30;;;;;;;11.88;100.00;96550.59;5031128;27;101974;-73
2023/08/08 04:43:57;;;;;;;1.33;1.33;;;;;;;11.80;100.00;96559.84;5049349;27;102631;-73
2023/08/08 04:46:24;;;;;;;1.60;1.50;;;;;;;11.82;100.00;96547.06;5048703;27;102799;-73
2023/08/08 04:48:51;;;;;;;2.00;1.33;;;;;;;11.84;100.00;96549.50;5030847;27;101991;-73
2023/08/08 04:51:19;;;;;;;1.40;1.30;;;;;;;11.82;100.00;96551.63;5034686;27;105417;-73
2023/08/08 04:53:46;;;;;;;1.40;1.30;;;;;;;11.86;100.00;96548.19;5034295;27;101928;-73
2023/08/08 04:56:13;;;;;;;1.37;1.30;;;;;;;11.93;100.00;96551.44;5034477;27;105188;-73
2023/08/08 04:58:40;;;;;;;2.47;1.47;;;;;;;11.88;100.00;96551.38;5033422;27;105393;-73
2023/08/08 05:01:08;;;;;;;1.23;1.13;;;;;;;11.91;100.00;96560.75;5034338;27;101928;-73
2023/08/08 05:03:35;;;;;;;1.50;1.40;;;;;;;11.87;100.00;96565.78;5034306;27;103833;-73
2023/08/08 05:06:02;;;;;;;1.67;1.20;;;;;;;11.98;100.00;96561.31;5033778;27;105307;-73
2023/08/08 05:08:31;;;;;;;2.20;1.13;;;;;;;12.07;100.00;96562.47;5034119;27;101909;-73
2023/08/08 05:10:58;;;;;;;1.90;1.37;;;;;;;12.10;100.00;96564.63;5034011;27;105185;-73
2023/08/08 05:13:25;;;;;;;1.40;1.30;;;;;;;12.10;100.00;96565.41;5036961;27;105648;-73
2023/08/08 05:15:52;;;;;;;2.23;1.30;;;;;;;12.18;100.00;96561.47;5034245;27;105432;-73
2023/08/08 05:18:19;;;;;;;1.67;1.40;;;;;;;12.16;100.00;96564.41;5033457;27;105813;-73
2023/08/08 05:20:46;;;;;;;2.53;1.50;;;;;;;12.21;100.00;96572.44;5033998;27;102496;-73
2023/08/08 05:23:13;;;;;;;5.67;1.53;;;;;;;12.29;100.00;96571.16;5033937;27;104960;-73
2023/08/08 05:25:41;;;;;;;1.30;1.27;;;;;;;12.34;100.00;96568.53;5051400;27;102017;-73
2023/08/08 05:28:08;;;;;;;1.50;1.33;;;;;;;12.33;100.00;96573.03;5033941;27;102192;-73
2023/08/08 05:30:35;;;;;;;1.57;1.30;;;;;;;12.33;100.00;96575.72;5052113;27;102916;-73
2023/08/08 05:33:01;;;;;;;1.73;1.20;;;;;;;12.29;100.00;96573.81;5033253;27;106000;-73
2023/08/08 05:35:28;;;;;;;3.87;1.40;;;;;;;12.36;100.00;96572.53;5037265;27;102058;-73
2023/08/08 05:37:55;;;;;;;1.87;1.30;;;;;;;12.39;100.00;96579.22;5033242;27;104332;-73
2023/08/08 05:40:22;;;;;;;1.30;1.20;;;;;;;12.44;100.00;96579.28;5033439;27;101967;-73
2023/08/08 05:42:51;;;;;;;2.90;1.70;;;;;;;12.45;100.00;96578.19;5033876;27;105480;-73
2023/08/08 05:45:18;;;;;;;1.63;1.50;;;;;;;12.41;100.00;96574.44;5033015;27;104574;-73
2023/08/08 05:47:45;;;;;;;4.20;1.40;;;;;;;12.37;100.00;96568.81;5033731;27;102103;-73
2023/08/08 05:50:12;;;;;;;5.87;1.30;;;;;;;12.34;100.00;96568.53;5033335;27;105712;-73
2023/08/08 05:52:39;;;;;;;1.43;1.30;;;;;;;12.32;100.00;96562.66;5032690;27;105602;-73
2023/08/08 05:55:07;;;;;;;1.83;1.13;;;;;;;12.31;100.00;96561.84;5036719;27;101956;-73
2023/08/08 05:57:34;;;;;;;1.33;1.23;;;;;;;12.32;100.00;96557.31;5032187;27;105942;-73
2023/08/08 06:00:03;;;;;;;1.03;1.03;;;;;;;12.35;100.00;96562.13;5033339;27;102340;-73
2023/08/08 06:02:39;;;;;;;2.53;2.33;;;;;;;12.41;100.00;96555.78;5048027;27;102194;-73
2023/08/08 06:05:07;;;;;;;3.70;1.30;;;;;;;12.48;100.00;96561.69;5032598;27;105900;-73
2023/08/08 06:07:34;;;;;;;1.37;1.37;;;;;;;12.63;100.00;96554.56;5033129;27;101969;-73
2023/08/08 06:10:01;;;;;;;1.50;1.13;;;;;;;12.80;100.00;96557.84;5033044;27;105203;-73
2023/08/08 06:12:28;;;;;;;1.13;1.13;;;;;;;12.73;100.00;96559.16;5050932;27;103133;-73
2023/08/08 06:14:55;;;;;;;1.60;1.20;;;;;;;12.78;100.00;96551.19;5033164;27;102008;-73
2023/08/08 06:17:24;;;;;;;1.20;1.13;;;;;;;12.81;100.00;96556.00;5035634;27;105567;-73
2023/08/08 06:19:51;;;;;;;1.30;1.20;;;;;;;12.86;100.00;96553.38;5032976;27;101963;-73
2023/08/08 06:22:18;;;;;;;1.30;1.20;;;;;;;13.06;100.00;96553.47;5033059;27;105168;-73
2023/08/08 06:24:45;;;;;;;1.43;1.20;;;;;;;13.29;100.00;96558.34;5032160;27;105679;-73
2023/08/08 06:27:14;;;;;;;1.20;1.10;;;;;;;13.67;100.00;96549.88;5032852;27;102338;-73
2023/08/08 06:29:41;;;;;;;1.17;1.07;;;;;;;13.95;100.00;96544.81;5032577;27;105659;-73
2023/08/08 06:32:08;;;;;;;1.17;1.07;;;;;;;13.93;100.00;96540.81;5050660;27;103179;-73
2023/08/08 06:34:36;;;;;;;1.50;1.27;;;;;;;14.26;100.00;96541.09;5032982;27;102305;-73
2023/08/08 06:37:04;;;;;;;1.10;1.00;;;;;;;14.55;100.00;96541.31;5032621;27;103855;-73
2023/08/08 06:39:31;;;;;;;1.83;1.00;;;;;;;14.45;100.00;96542.13;5035463;27;104799;-73
2023/08/08 06:41:58;;;;;;;2.03;1.20;;;;;;;14.68;100.00;96541.56;5051150;27;102743;-73
2023/08/08 06:44:42;;;;;;;1.40;1.07;;;;;;;14.88;100.00;96540.69;5032059;27;105121;-73
2023/08/08 06:47:09;;;;;;;1.30;1.10;;;;;;;14.92;100.00;96547.09;5032765;27;102327;-73
2023/08/08 06:49:38;;;;;;;1.27;1.17;;;;;;;15.21;100.00;96550.72;5032671;27;105397;-73
2023/08/08 06:52:06;;;;;;;3.10;1.00;;;;;;;15.18;100.00;96540.56;5031899;27;106052;-73
2023/08/08 06:54:33;;;;;;;1.40;1.03;;;;;;;15.26;100.00;96540.00;5032639;27;101953;-73
2023/08/08 06:57:01;;;;;;;0.90;0.90;;;;;;;15.15;100.00;96536.53;5032391;27;106328;-73
2023/08/08 06:59:29;;;;;;;2.20;1.13;;;;;;;15.33;100.00;96545.88;5031550;27;105496;-73
2023/08/08 07:01:57;;;;;;;1.57;0.90;;;;;;;15.44;100.00;96542.06;5054319;27;101846;-73
2023/08/08 07:04:24;;;;;;;1.00;1.00;;;;;;;15.66;100.00;96539.78;5050148;27;102940;-73
2023/08/08 07:06:52;;;;;;;0.80;0.80;;;;;;;15.87;100.00;96538.56;5050506;27;101950;-73
2023/08/08 07:09:19;;;;;;;2.30;1.17;;;;;;;15.77;100.00;96535.94;5050438;27;102555;-73
2023/08/08 07:11:46;;;;;;;1.00;0.90;;;;;;;15.80;100.00;96535.41;5031731;27;106117;-73
2023/08/08 07:14:13;;;;;;;1.17;0.93;;;;;;;15.96;100.00;96532.31;5031485;27;102352;-73
2023/08/08 07:16:40;;;;;;;1.10;1.00;;;;;;;15.93;100.00;96537.44;5032342;27;104299;-73
2023/08/08 07:19:07;;;;;;;0.90;0.90;;;;;;;15.91;100.00;96536.94;5031725;27;105677;-73
2023/08/08 07:21:34;;;;;;;0.90;0.90;;;;;;;16.02;100.00;96541.91;5031967;27;102026;-73
2023/08/08 07:24:03;;;;;;;1.30;1.20;;;;;;;15.85;100.00;96530.78;5035009;27;105398;-73
2023/08/08 07:26:30;;;;;;;1.17;1.03;;;;;;;15.98;100.00;96524.78;5032257;27;102023;-73
2023/08/08 07:28:57;;;;;;;1.40;1.10;;;;;;;16.08;100.00;96518.56;5032131;27;105305;-73
2023/08/08 07:31:23;;;;;;;0.90;0.90;;;;;;;16.30;100.00;96526.94;5031280;27;105249;-73
2023/08/08 07:33:50;;;;;;;0.70;0.70;;;;;;;16.32;100.00;96519.38;5032104;27;102015;-73
2023/08/08 07:36:19;;;;;;;2.10;0.97;;;;;;;16.54;100.00;96519.75;5033095;27;101785;-73
2023/08/08 07:38:46;;;;;;;1.03;0.93;;;;;;;16.80;100.00;96516.50;5031364;27;105152;-73
2023/08/08 07:41:14;;;;;;;1.20;0.90;;;;;;;16.81;100.00;96518.09;5031727;27;102336;-73
2023/08/08 07:43:41;;;;;;;0.90;0.90;;;;;;;16.99;100.00;96516.53;5031960;27;104910;-73
2023/08/08 07:46:08;;;;;;;0.93;0.90;;;;;;;16.96;100.00;96509.84;5034522;27;106029;-73
2023/08/08 07:48:35;;;;;;;1.93;1.00;;;;;;;16.92;100.00;96508.03;5031609;27;105331;-73
2023/08/08 07:51:03;;;;;;;0.97;0.93;;;;;;;16.82;100.00;96508.97;5031142;27;105077;-73
2023/08/08 07:53:30;;;;;;;0.90;0.90;;;;;;;17.00;100.00;96502.81;5050089;27;101820;-73
2023/08/08 07:55:56;;;;;;;1.10;0.80;;;;;;;17.16;100.00;96498.06;5031628;27;105264;-73
2023/08/08 07:58:26;;;;;;;1.10;1.00;;;;;;;17.20;100.00;96501.75;5030277;27;105507;-73
2023/08/08 08:00:54;;;;;;;1.00;1.00;;;;;;;17.29;100.00;96497.34;5031719;27;101896;-73
2023/08/08 08:03:21;;;;;;;1.33;0.90;;;;;;;17.30;100.00;96493.56;5049567;27;104574;-73
2023/08/08 08:05:48;;;;;;;1.93;0.87;;;;;;;17.54;100.00;96492.44;5052626;27;103139;-73
2023/08/08 08:08:15;;;;;;;1.90;1.03;;;;;;;17.50;100.00;96485.25;5031520;27;105593;-73
2023/08/08 08:10:42;;;;;;;2.93;0.80;;;;;;;17.34;100.00;96483.84;5030834;27;105794;-73
2023/08/08 08:13:11;;;;;;;1.03;0.93;;;;;;;17.40;100.00;96474.63;5049876;27;101786;-73
2023/08/08 08:15:40;;;;;;;0.90;0.90;;;;;;;17.57;100.00;96472.22;5031600;27;103924;-73
2023/08/08 08:18:07;;;;;;;1.63;0.80;;;;;;;17.75;100.00;96474.09;5030751;27;104995;-73
2023/08/08 08:20:34;;;;;;;1.43;0.90;;;;;;;17.83;100.00;96473.44;5031402;27;102169;-73
2023/08/08 08:23:01;;;;;;;2.10;0.90;;;;;;;17.98;100.00;96465.13;5049768;27;102676;-73
2023/08/08 08:25:28;;;;;;;0.80;0.80;;;;;;;18.34;100.00;96466.13;5032035;27;105582;-73
2023/08/08 08:27:54;;;;;;;1.20;1.10;;;;;;;18.40;100.00;96460.34;5038156;27;102033;-73
2023/08/08 08:30:23;;;;;;;0.90;0.90;;;;;;;18.10;100.00;96455.47;5034200;27;105528;-73
2023/08/08 08:32:56;;;;;;;1.00;1.00;;;;;;;18.28;100.00;96453.81;5034908;27;102103;-73
2023/08/08 08:35:25;;;;;;;1.37;0.90;;;;;;;18.56;100.00;96452.78;5034745;27;104186;-73
2023/08/08 08:37:52;;;;;;;1.60;1.00;;;;;;;18.61;100.00;96455.38;5034164;27;105223;-73
2023/08/08 08:40:19;;;;;;;0.93;0.90;;;;;;;18.41;100.00;96444.97;5034684;27;101857;-73
2023/08/08 08:42:48;;;;;;;0.70;0.70;;;;;;;18.51;97.03;96455.56;5034672;27;105598;-73
2023/08/08 08:45:17;;;;;;;0.80;0.80;;;;;;;18.58;99.29;96447.91;5034071;27;103984;-73
2023/08/08 08:47:47;;;;;;;0.87;0.87;;;;;;;18.91;100.00;96444.78;5034555;27;101808;-73
2023/08/08 08:50:17;;;;;;;0.77;0.70;;;;;;;19.26;90.76;96441.38;5037151;27;104907;-73
2023/08/08 08:52:44;;;;;;;1.40;1.10;;;;;;;19.46;96.04;96448.97;5052651;27;101908;-73
2023/08/08 08:55:11;;;;;;;1.43;1.00;;;;;;;19.35;85.91;96446.84;5034409;27;105229;-73
2023/08/08 08:57:39;;;;;;;0.90;0.90;;;;;;;19.33;80.09;96444.44;5033060;27;105653;-73
2023/08/08 09:00:08;;;;;;;1.20;1.03;;;;;;;19.48;82.05;96448.69;5052987;27;101723;-73
2023/08/08 09:02:35;;;;;;;0.90;0.90;;;;;;;19.83;82.92;96453.25;5034443;27;105786;-73
2023/08/08 09:05:04;;;;;;;0.80;0.80;;;;;;;19.87;71.52;96446.13;5051916;27;102862;-73
2023/08/08 09:07:33;;;;;;;1.03;0.90;;;;;;;20.00;73.88;96440.66;5052674;27;101801;-73
2023/08/08 09:10:00;;;;;;;0.90;0.90;;;;;;;19.80;67.49;96445.75;5034397;27;104363;-73
2023/08/08 09:12:28;;;;;;;0.90;0.90;;;;;;;20.00;72.70;96431.78;5037088;27;105603;-73
2023/08/08 09:14:57;;;;;;;2.07;1.10;;;;;;;20.00;69.80;96434.47;5034177;27;105267;-73
2023/08/08 09:17:27;;;;;;;1.27;0.90;;;;;;;20.03;68.08;96437.34;5033477;27;105420;-73
2023/08/08 09:19:54;;;;;;;0.80;0.80;;;;;;;19.89;68.28;96433.91;5034025;27;102142;-73
2023/08/08 09:22:21;;;;;;;1.77;1.00;;;;;;;20.18;60.57;96431.59;5034101;27;105107;-73
2023/08/08 09:24:50;;;;;;;0.80;0.80;;;;;;;20.60;77.97;96424.81;5033574;27;104353;-73
2023/08/08 09:27:17;;;;;;;0.87;0.80;;;;;;;20.82;74.03;96419.31;5033933;27;101777;-73
2023/08/08 09:29:44;;;;;;;1.97;1.00;;;;;;;20.71;59.89;96423.41;5033742;27;104856;-73
2023/08/08 09:32:13;;;;;;;1.00;1.00;;;;;;;21.01;56.88;96415.25;5033126;27;104195;-73
2023/08/08 09:34:43;;;;;;;2.87;1.20;;;;;;;21.08;58.18;96412.09;5037366;27;101949;-73
2023/08/08 09:37:11;;;;;;;1.70;1.00;;;;;;;20.96;60.68;96417.28;5032649;27;103973;-73
2023/08/08 09:39:38;;;;;;;1.73;1.00;;;;;;;21.09;54.82;96414.44;5033796;27;101971;-73
2023/08/08 09:42:11;;;;;;;1.73;0.80;;;;;;;20.99;58.86;96405.84;5033614;27;105684;-73
2023/08/08 09:44:38;;;;;;;1.60;1.00;;;;;;;20.95;54.96;96402.19;5033141;27;106081;-73
2023/08/08 09:47:05;;;;;;;1.20;1.10;;;;;;;21.14;59.87;96398.06;5033400;27;102017;-73
2023/08/08 09:49:34;;;;;;;0.90;0.90;;;;;;;20.78;58.41;96396.72;5033640;27;105316;-73
2023/08/08 09:52:02;;;;;;;1.30;1.20;;;;;;;21.18;54.79;96395.53;5032978;27;106093;-73
2023/08/08 09:54:30;;;;;;;1.37;1.10;;;;;;;20.89;54.94;96393.44;5033534;27;102080;-73
2023/08/08 09:56:57;;;;;;;1.00;1.00;;;;;;;21.71;61.85;96391.44;5036371;27;104787;-73
2023/08/08 09:59:26;;;;;;;1.97;1.00;;;;;;;21.76;53.79;96385.84;5032874;27;101854;-73
2023/08/08 10:01:53;;;;;;;1.97;0.90;;;;;;;22.45;52.79;96392.69;5033432;27;104174;-73
2023/08/08 10:04:21;;;;;;;0.90;0.90;;;;;;;21.60;48.15;96392.03;5032725;27;105416;-73
2023/08/08 10:06:48;;;;;;;0.90;0.90;;;;;;;21.30;48.08;96391.09;5033391;27;102724;-73
2023/08/08 10:09:15;;;;;;;1.10;1.00;;;;;;;21.36;49.01;96386.34;5033267;27;105875;-73
2023/08/08 10:11:44;;;;;;;0.77;0.77;;;;;;;21.92;44.31;96383.44;5032637;27;105221;-73
2023/08/08 10:14:11;;;;;;;0.80;0.80;;;;;;;22.49;45.75;96376.56;5033284;27;101889;-73
2023/08/08 10:16:40;;;;;;;0.80;0.80;;;;;;;21.80;42.21;96375.19;5036141;27;105356;-73
2023/08/08 10:19:08;;;;;;;1.23;0.90;;;;;;;21.60;44.52;96376.59;5033036;27;101929;-73
2023/08/08 10:21:36;;;;;;;0.73;0.73;;;;;;;21.79;44.24;96362.75;5033162;27;105151;-73
2023/08/08 10:24:08;;;;;;;0.70;0.70;;;;;;;21.70;45.28;96370.09;5032561;27;105155;-73
2023/08/08 10:26:35;;;;;;;1.37;0.83;;;;;;;21.30;44.05;96368.66;5033070;27;101931;-73
2023/08/08 10:29:02;;;;;;;0.87;0.87;;;;;;;21.75;44.75;96367.22;5033003;27;105405;-73
2023/08/08 10:31:36;;;;;;;1.03;0.70;;;;;;;21.69;43.47;96365.81;5032119;27;105403;-73
2023/08/08 10:34:06;;;;;;;0.80;0.80;;;;;;;21.64;44.20;96371.34;5033079;27;102154;-73
2023/08/08 10:36:51;;;;;;;0.80;0.80;;;;;;;21.55;42.09;96362.44;5033072;27;102482;-73
2023/08/08 10:39:18;;;;;;;2.27;1.00;;;;;;;21.80;42.49;96369.75;5035754;27;105464;-73
2023/08/08 10:41:47;;;;;;;0.80;0.80;;;;;;;21.98;43.37;96363.19;5032738;27;105383;-73
2023/08/08 10:44:15;;;;;;;0.70;0.70;;;;;;;21.27;42.85;96359.28;5050180;27;103172;-73
2023/08/08 10:46:42;;;;;;;0.83;0.80;;;;;;;21.52;43.46;96357.69;5051006;27;102073;-73
2023/08/08 10:49:14;;;;;;;0.70;0.70;;;;;;;21.33;42.08;96368.81;5031561;27;105158;-73
2023/08/08 10:51:45;;;;;;;0.80;0.80;;;;;;;21.22;42.20;96359.44;5031964;27;104621;-73
2023/08/08 10:54:15;;;;;;;0.70;0.70;;;;;;;21.77;43.39;96354.97;5032834;27;102142;-73
2023/08/08 10:56:48;;;;;;;0.90;0.90;;;;;;;21.82;41.80;96357.50;5050662;27;102838;-73
2023/08/08 10:59:17;;;;;;;1.90;1.20;;;;;;;21.68;41.72;96356.09;5049376;27;102799;-73
2023/08/08 11:01:47;;;;;;;0.80;0.80;;;;;;;21.84;43.42;96370.69;5036357;27;102137;-73
2023/08/08 11:04:17;;;;;;;0.80;0.63;;;;;;;21.81;43.15;96355.91;5031837;27;105525;-73
2023/08/08 11:06:44;;;;;;;2.70;0.70;;;;;;;22.52;41.59;96354.25;5032582;27;102059;-73
2023/08/08 11:09:11;;;;;;;0.87;0.70;;;;;;;22.59;42.26;96352.63;5050664;27;102979;-73
2023/08/08 11:11:39;;;;;;;0.80;0.80;;;;;;;22.04;42.02;96359.19;5031772;27;105876;-73
2023/08/08 11:14:11;;;;;;;0.80;0.80;;;;;;;22.03;40.82;96355.69;5032230;27;102150;-73
2023/08/08 11:16:38;;;;;;;2.73;1.07;;;;;;;21.96;41.93;96354.59;5050565;27;102823;-73
2023/08/08 11:19:05;;;;;;;0.87;0.87;;;;;;;21.81;40.79;96355.91;5031728;27;105839;-73
2023/08/08 11:21:36;;;;;;;1.47;0.80;;;;;;;22.01;40.83;96349.00;5032313;27;101851;-73